sensor_id;sensor_type;location;lat;lon;timestamp;temperature;humidity
19817;DHT22;68323;49.394;8.434;2023-07-29T00:00:46;20.00;99.90
19817;DHT22;68323;49.394;8.434;2023-07-29T00:03:11;20.10;99.90
19817;DHT22;68323;49.394;8.434;2023-07-29T00:05:38;20.10;99.90
19817;DHT22;68323;49.394;8.434;2023-07-29T00:08:03;20.10;99.90
19817;DHT22;68323;49.394;8.434;2023-07-29T00:10:31;20.10;99.90
19817;DHT22;68323;49.394;8.434;2023-07-29T00:12:57;20.10;99.90
19817;DHT22;68323;49.394;8.434;2023-07-29T00:15:23;20.10;99.90
19817;DHT22;68323;49.394;8.434;2023-07-29T00:17:49;20.10;99.90
19817;DHT22;68323;49.394;8.434;2023-07-29T00:20:14;20.00;99.90
19817;DHT22;68323;49.394;8.434;2023-07-29T00:22:40;20.00;99.90
19817;DHT22;68323;49.394;8.434;2023-07-29T00:25:06;20.00;99.90
19817;DHT22;68323;49.394;8.434;2023-07-29T00:27:32;20.00;99.90
19817;DHT22;68323;49.394;8.434;2023-07-29T00:29:57;20.00;99.90
19817;DHT22;68323;49.394;8.434;2023-07-29T00:32:23;20.00;99.90
19817;DHT22;68323;49.394;8.434;2023-07-29T00:34:48;19.90;99.90
19817;DHT22;68323;49.394;8.434;2023-07-29T00:37:14;19.90;99.90
19817;DHT22;68323;49.394;8.434;2023-07-29T00:39:39;19.90;99.90
19817;DHT22;68323;49.394;8.434;2023-07-29T00:42:06;19.90;99.90
19817;DHT22;68323;49.394;8.434;2023-07-29T00:44:31;19.90;99.90
19817;DHT22;68323;49.394;8.434;2023-07-29T00:46:58;19.90;99.90
19817;DHT22;68323;49.394;8.434;2023-07-29T00:49:26;19.90;99.90
19817;DHT22;68323;49.394;8.434;2023-07-29T00:51:51;19.80;99.90
19817;DHT22;68323;49.394;8.434;2023-07-29T00:54:17;19.80;99.90
19817;DHT22;68323;49.394;8.434;2023-07-29T00:56:42;19.80;99.90
19817;DHT22;68323;49.394;8.434;2023-07-29T00:59:08;19.80;99.90
19817;DHT22;68323;49.394;8.434;2023-07-29T01:01:34;19.80;99.90
19817;DHT22;68323;49.394;8.434;2023-07-29T01:03:59;19.80;99.90
19817;DHT22;68323;49.394;8.434;2023-07-29T01:06:49;19.80;99.90
19817;DHT22;68323;49.394;8.434;2023-07-29T01:09:48;19.80;99.90
19817;DHT22;68323;49.394;8.434;2023-07-29T01:12:29;19.80;99.90
19817;DHT22;68323;49.394;8.434;2023-07-29T01:17:43;19.80;99.90
19817;DHT22;68323;49.394;8.434;2023-07-29T01:20:14;19.80;99.90
19817;DHT22;68323;49.394;8.434;2023-07-29T01:22:41;19.70;99.90
19817;DHT22;68323;49.394;8.434;2023-07-29T01:25:07;19.70;99.90
19817;DHT22;68323;49.394;8.434;2023-07-29T01:27:32;19.70;99.90
19817;DHT22;68323;49.394;8.434;2023-07-29T01:29:59;19.70;99.90
19817;DHT22;68323;49.394;8.434;2023-07-29T01:32:53;19.70;99.90
19817;DHT22;68323;49.394;8.434;2023-07-29T01:37:52;19.60;99.90
19817;DHT22;68323;49.394;8.434;2023-07-29T01:40:25;19.60;99.90
19817;DHT22;68323;49.394;8.434;2023-07-29T01:42:52;19.50;99.90
19817;DHT22;68323;49.394;8.434;2023-07-29T01:45:17;19.50;99.90
19817;DHT22;68323;49.394;8.434;2023-07-29T01:47:43;19.50;99.90
19817;DHT22;68323;49.394;8.434;2023-07-29T01:50:09;19.50;99.90
19817;DHT22;68323;49.394;8.434;2023-07-29T01:52:34;19.50;99.90
19817;DHT22;68323;49.394;8.434;2023-07-29T01:55:01;19.50;99.90
19817;DHT22;68323;49.394;8.434;2023-07-29T01:57:27;19.50;99.90
19817;DHT22;68323;49.394;8.434;2023-07-29T01:59:52;19.50;99.90
19817;DHT22;68323;49.394;8.434;2023-07-29T02:02:18;19.50;99.90
19817;DHT22;68323;49.394;8.434;2023-07-29T02:04:43;19.40;99.90
19817;DHT22;68323;49.394;8.434;2023-07-29T02:07:10;19.40;99.90
19817;DHT22;68323;49.394;8.434;2023-07-29T02:09:36;19.40;99.90
19817;DHT22;68323;49.394;8.434;2023-07-29T02:12:01;19.40;99.90
19817;DHT22;68323;49.394;8.434;2023-07-29T02:14:28;19.40;99.90
19817;DHT22;68323;49.394;8.434;2023-07-29T02:16:53;19.30;99.90
19817;DHT22;68323;49.394;8.434;2023-07-29T02:19:19;19.40;99.90
19817;DHT22;68323;49.394;8.434;2023-07-29T02:21:44;19.40;99.90
19817;DHT22;68323;49.394;8.434;2023-07-29T02:24:10;19.40;99.90
19817;DHT22;68323;49.394;8.434;2023-07-29T02:26:35;19.40;99.90
19817;DHT22;68323;49.394;8.434;2023-07-29T02:29:01;19.40;99.90
19817;DHT22;68323;49.394;8.434;2023-07-29T02:31:26;19.40;99.90
19817;DHT22;68323;49.394;8.434;2023-07-29T02:33:52;19.40;99.90
19817;DHT22;68323;49.394;8.434;2023-07-29T02:36:18;19.40;99.90
19817;DHT22;68323;49.394;8.434;2023-07-29T02:38:44;19.30;99.90
19817;DHT22;68323;49.394;8.434;2023-07-29T02:41:10;19.40;99.90
19817;DHT22;68323;49.394;8.434;2023-07-29T02:43:37;19.40;99.90
19817;DHT22;68323;49.394;8.434;2023-07-29T02:46:03;19.50;99.90
19817;DHT22;68323;49.394;8.434;2023-07-29T02:48:29;19.50;99.90
19817;DHT22;68323;49.394;8.434;2023-07-29T02:50:55;19.50;99.90
19817;DHT22;68323;49.394;8.434;2023-07-29T02:53:22;19.50;99.90
19817;DHT22;68323;49.394;8.434;2023-07-29T02:55:48;19.50;99.90
19817;DHT22;68323;49.394;8.434;2023-07-29T02:58:13;19.50;99.90
19817;DHT22;68323;49.394;8.434;2023-07-29T03:00:39;19.50;99.90
19817;DHT22;68323;49.394;8.434;2023-07-29T03:03:07;19.50;99.90
19817;DHT22;68323;49.394;8.434;2023-07-29T03:05:33;19.50;99.90
19817;DHT22;68323;49.394;8.434;2023-07-29T03:07:59;19.50;99.90
19817;DHT22;68323;49.394;8.434;2023-07-29T03:10:24;19.50;99.90
19817;DHT22;68323;49.394;8.434;2023-07-29T03:12:50;19.60;99.90
19817;DHT22;68323;49.394;8.434;2023-07-29T03:15:16;19.50;99.90
19817;DHT22;68323;49.394;8.434;2023-07-29T03:17:41;19.50;99.90
19817;DHT22;68323;49.394;8.434;2023-07-29T03:20:07;19.60;99.90
19817;DHT22;68323;49.394;8.434;2023-07-29T03:22:33;19.60;99.90
19817;DHT22;68323;49.394;8.434;2023-07-29T03:24:59;19.60;99.90
19817;DHT22;68323;49.394;8.434;2023-07-29T03:27:24;19.60;99.90
19817;DHT22;68323;49.394;8.434;2023-07-29T03:29:50;19.60;99.90
19817;DHT22;68323;49.394;8.434;2023-07-29T03:32:15;19.60;99.90
19817;DHT22;68323;49.394;8.434;2023-07-29T03:34:41;19.60;99.90
19817;DHT22;68323;49.394;8.434;2023-07-29T03:37:06;19.60;99.90
19817;DHT22;68323;49.394;8.434;2023-07-29T03:39:32;19.60;99.90
19817;DHT22;68323;49.394;8.434;2023-07-29T03:41:58;19.60;99.90
19817;DHT22;68323;49.394;8.434;2023-07-29T03:44:23;19.70;99.90
19817;DHT22;68323;49.394;8.434;2023-07-29T03:46:49;19.70;99.90
19817;DHT22;68323;49.394;8.434;2023-07-29T03:49:14;19.70;99.90
19817;DHT22;68323;49.394;8.434;2023-07-29T03:51:40;19.70;99.90
19817;DHT22;68323;49.394;8.434;2023-07-29T03:54:06;19.70;99.90
19817;DHT22;68323;49.394;8.434;2023-07-29T03:56:32;19.70;99.90
19817;DHT22;68323;49.394;8.434;2023-07-29T03:59:05;19.70;99.90
19817;DHT22;68323;49.394;8.434;2023-07-29T04:01:31;19.70;99.90
19817;DHT22;68323;49.394;8.434;2023-07-29T04:03:57;19.70;99.90
19817;DHT22;68323;49.394;8.434;2023-07-29T04:06:23;19.70;99.90
19817;DHT22;68323;49.394;8.434;2023-07-29T04:08:48;19.70;99.90
19817;DHT22;68323;49.394;8.434;2023-07-29T04:11:14;19.70;99.90
19817;DHT22;68323;49.394;8.434;2023-07-29T04:13:40;19.70;99.90
19817;DHT22;68323;49.394;8.434;2023-07-29T04:16:06;19.70;99.90
19817;DHT22;68323;49.394;8.434;2023-07-29T04:18:31;19.70;99.90
19817;DHT22;68323;49.394;8.434;2023-07-29T04:20:57;19.70;99.90
19817;DHT22;68323;49.394;8.434;2023-07-29T04:23:23;19.80;99.90
19817;DHT22;68323;49.394;8.434;2023-07-29T04:25:48;19.80;99.90
19817;DHT22;68323;49.394;8.434;2023-07-29T04:28:15;19.80;99.90
19817;DHT22;68323;49.394;8.434;2023-07-29T04:30:41;19.80;99.90
19817;DHT22;68323;49.394;8.434;2023-07-29T04:33:06;19.80;99.90
19817;DHT22;68323;49.394;8.434;2023-07-29T04:35:32;19.90;99.90
19817;DHT22;68323;49.394;8.434;2023-07-29T04:37:57;19.90;99.90
19817;DHT22;68323;49.394;8.434;2023-07-29T04:40:23;19.90;99.90
19817;DHT22;68323;49.394;8.434;2023-07-29T04:42:49;19.90;99.90
19817;DHT22;68323;49.394;8.434;2023-07-29T04:45:15;19.90;99.90
19817;DHT22;68323;49.394;8.434;2023-07-29T04:47:41;19.90;99.90
19817;DHT22;68323;49.394;8.434;2023-07-29T04:50:07;19.90;99.90
19817;DHT22;68323;49.394;8.434;2023-07-29T04:52:33;19.90;99.90
19817;DHT22;68323;49.394;8.434;2023-07-29T04:54:58;19.90;99.90
19817;DHT22;68323;49.394;8.434;2023-07-29T04:57:24;19.90;99.90
19817;DHT22;68323;49.394;8.434;2023-07-29T04:59:49;19.90;99.90
19817;DHT22;68323;49.394;8.434;2023-07-29T05:02:15;19.90;99.90
19817;DHT22;68323;49.394;8.434;2023-07-29T05:04:40;19.90;99.90
19817;DHT22;68323;49.394;8.434;2023-07-29T05:07:06;19.90;99.90
19817;DHT22;68323;49.394;8.434;2023-07-29T05:09:32;19.80;99.90
19817;DHT22;68323;49.394;8.434;2023-07-29T05:11:57;19.80;99.90
19817;DHT22;68323;49.394;8.434;2023-07-29T05:14:23;19.90;99.90
19817;DHT22;68323;49.394;8.434;2023-07-29T05:16:49;19.90;99.90
19817;DHT22;68323;49.394;8.434;2023-07-29T05:19:14;19.80;99.90
19817;DHT22;68323;49.394;8.434;2023-07-29T05:21:40;19.90;99.90
19817;DHT22;68323;49.394;8.434;2023-07-29T05:24:06;19.90;99.90
19817;DHT22;68323;49.394;8.434;2023-07-29T05:26:31;19.90;99.90
19817;DHT22;68323;49.394;8.434;2023-07-29T05:28:57;19.90;99.90
19817;DHT22;68323;49.394;8.434;2023-07-29T05:31:23;19.90;99.90
19817;DHT22;68323;49.394;8.434;2023-07-29T05:33:48;20.00;99.90
19817;DHT22;68323;49.394;8.434;2023-07-29T05:36:14;20.00;99.90
19817;DHT22;68323;49.394;8.434;2023-07-29T05:38:39;20.00;99.90
19817;DHT22;68323;49.394;8.434;2023-07-29T05:41:05;20.00;99.90
19817;DHT22;68323;49.394;8.434;2023-07-29T05:43:30;20.00;99.90
19817;DHT22;68323;49.394;8.434;2023-07-29T05:45:56;20.00;99.90
19817;DHT22;68323;49.394;8.434;2023-07-29T05:48:21;20.00;99.90
19817;DHT22;68323;49.394;8.434;2023-07-29T05:50:47;20.00;99.90
19817;DHT22;68323;49.394;8.434;2023-07-29T05:53:14;20.00;99.90
19817;DHT22;68323;49.394;8.434;2023-07-29T05:55:39;20.00;99.90
19817;DHT22;68323;49.394;8.434;2023-07-29T05:58:05;20.10;99.90
19817;DHT22;68323;49.394;8.434;2023-07-29T06:00:31;20.10;99.90
19817;DHT22;68323;49.394;8.434;2023-07-29T06:02:56;20.10;99.90
19817;DHT22;68323;49.394;8.434;2023-07-29T06:05:22;20.20;99.90
19817;DHT22;68323;49.394;8.434;2023-07-29T06:07:47;20.20;99.90
19817;DHT22;68323;49.394;8.434;2023-07-29T06:10:15;20.30;99.90
19817;DHT22;68323;49.394;8.434;2023-07-29T06:12:44;20.40;99.90
19817;DHT22;68323;49.394;8.434;2023-07-29T06:15:10;20.50;99.90
19817;DHT22;68323;49.394;8.434;2023-07-29T06:17:36;20.70;99.90
19817;DHT22;68323;49.394;8.434;2023-07-29T06:20:01;20.80;99.90
19817;DHT22;68323;49.394;8.434;2023-07-29T06:22:28;20.90;99.90
19817;DHT22;68323;49.394;8.434;2023-07-29T06:24:53;21.00;99.90
19817;DHT22;68323;49.394;8.434;2023-07-29T06:27:19;21.20;99.90
19817;DHT22;68323;49.394;8.434;2023-07-29T06:29:44;21.40;99.90
19817;DHT22;68323;49.394;8.434;2023-07-29T06:32:10;21.50;99.90
19817;DHT22;68323;49.394;8.434;2023-07-29T06:34:35;21.70;99.90
19817;DHT22;68323;49.394;8.434;2023-07-29T06:37:01;21.70;99.90
19817;DHT22;68323;49.394;8.434;2023-07-29T06:39:26;21.80;99.90
19817;DHT22;68323;49.394;8.434;2023-07-29T06:41:52;21.90;99.90
19817;DHT22;68323;49.394;8.434;2023-07-29T06:44:18;21.90;99.90
19817;DHT22;68323;49.394;8.434;2023-07-29T06:46:43;22.00;99.90
19817;DHT22;68323;49.394;8.434;2023-07-29T06:49:09;22.20;99.90
19817;DHT22;68323;49.394;8.434;2023-07-29T06:51:34;22.30;99.90
19817;DHT22;68323;49.394;8.434;2023-07-29T06:54:01;22.50;99.90
19817;DHT22;68323;49.394;8.434;2023-07-29T06:56:27;22.60;99.90
19817;DHT22;68323;49.394;8.434;2023-07-29T06:58:53;22.80;99.90
19817;DHT22;68323;49.394;8.434;2023-07-29T07:01:18;23.00;99.90
19817;DHT22;68323;49.394;8.434;2023-07-29T07:03:44;23.10;99.90
19817;DHT22;68323;49.394;8.434;2023-07-29T07:06:10;23.20;99.90
19817;DHT22;68323;49.394;8.434;2023-07-29T07:08:35;23.30;99.90
19817;DHT22;68323;49.394;8.434;2023-07-29T07:11:01;23.50;99.90
19817;DHT22;68323;49.394;8.434;2023-07-29T07:13:26;23.70;99.90
19817;DHT22;68323;49.394;8.434;2023-07-29T07:15:55;24.00;99.90
19817;DHT22;68323;49.394;8.434;2023-07-29T07:18:20;24.60;99.90
19817;DHT22;68323;49.394;8.434;2023-07-29T07:20:49;25.20;99.90
19817;DHT22;68323;49.394;8.434;2023-07-29T07:23:15;25.90;99.90
19817;DHT22;68323;49.394;8.434;2023-07-29T07:25:41;26.60;99.90
19817;DHT22;68323;49.394;8.434;2023-07-29T07:28:08;27.50;99.90
19817;DHT22;68323;49.394;8.434;2023-07-29T07:30:33;28.40;99.90
19817;DHT22;68323;49.394;8.434;2023-07-29T07:32:59;29.30;99.90
19817;DHT22;68323;49.394;8.434;2023-07-29T07:35:24;29.60;99.90
19817;DHT22;68323;49.394;8.434;2023-07-29T07:37:50;29.40;99.90
19817;DHT22;68323;49.394;8.434;2023-07-29T07:40:15;29.10;99.90
19817;DHT22;68323;49.394;8.434;2023-07-29T07:42:41;28.80;99.90
19817;DHT22;68323;49.394;8.434;2023-07-29T07:45:06;28.40;99.90
19817;DHT22;68323;49.394;8.434;2023-07-29T07:47:32;28.10;99.90
19817;DHT22;68323;49.394;8.434;2023-07-29T07:49:58;27.90;99.90
19817;DHT22;68323;49.394;8.434;2023-07-29T07:52:23;27.90;99.90
19817;DHT22;68323;49.394;8.434;2023-07-29T07:54:52;27.70;99.90
19817;DHT22;68323;49.394;8.434;2023-07-29T07:57:19;27.40;99.90
19817;DHT22;68323;49.394;8.434;2023-07-29T07:59:45;27.20;99.90
19817;DHT22;68323;49.394;8.434;2023-07-29T08:02:11;27.10;99.90
19817;DHT22;68323;49.394;8.434;2023-07-29T08:04:36;26.90;99.90
19817;DHT22;68323;49.394;8.434;2023-07-29T08:07:02;26.80;99.90
19817;DHT22;68323;49.394;8.434;2023-07-29T08:09:27;26.60;99.90
19817;DHT22;68323;49.394;8.434;2023-07-29T08:11:53;26.50;99.90
19817;DHT22;68323;49.394;8.434;2023-07-29T08:14:18;26.30;99.90
19817;DHT22;68323;49.394;8.434;2023-07-29T08:16:44;26.20;99.90
19817;DHT22;68323;49.394;8.434;2023-07-29T08:19:09;25.90;99.90
19817;DHT22;68323;49.394;8.434;2023-07-29T08:21:35;25.70;99.90
19817;DHT22;68323;49.394;8.434;2023-07-29T08:24:01;25.50;99.90
19817;DHT22;68323;49.394;8.434;2023-07-29T08:26:27;25.40;99.90
19817;DHT22;68323;49.394;8.434;2023-07-29T08:28:53;25.30;99.90
19817;DHT22;68323;49.394;8.434;2023-07-29T08:31:18;25.20;99.90
19817;DHT22;68323;49.394;8.434;2023-07-29T08:33:44;25.10;99.90
19817;DHT22;68323;49.394;8.434;2023-07-29T08:36:09;25.00;99.90
19817;DHT22;68323;49.394;8.434;2023-07-29T08:38:35;25.00;99.90
19817;DHT22;68323;49.394;8.434;2023-07-29T08:41:37;24.80;99.90
19817;DHT22;68323;49.394;8.434;2023-07-29T08:44:25;24.60;99.90
19817;DHT22;68323;49.394;8.434;2023-07-29T08:46:51;24.50;99.90
19817;DHT22;68323;49.394;8.434;2023-07-29T08:49:19;24.40;99.90
19817;DHT22;68323;49.394;8.434;2023-07-29T08:51:46;24.30;99.90
19817;DHT22;68323;49.394;8.434;2023-07-29T08:54:14;24.30;99.90
19817;DHT22;68323;49.394;8.434;2023-07-29T08:56:41;24.40;99.90
19817;DHT22;68323;49.394;8.434;2023-07-29T08:59:07;24.30;99.90
19817;DHT22;68323;49.394;8.434;2023-07-29T09:01:33;24.40;99.90
19817;DHT22;68323;49.394;8.434;2023-07-29T09:03:59;24.50;99.90
19817;DHT22;68323;49.394;8.434;2023-07-29T09:06:26;24.80;99.90
19817;DHT22;68323;49.394;8.434;2023-07-29T09:08:54;25.20;99.90
19817;DHT22;68323;49.394;8.434;2023-07-29T09:11:22;25.50;99.90
19817;DHT22;68323;49.394;8.434;2023-07-29T09:13:48;26.00;99.90
19817;DHT22;68323;49.394;8.434;2023-07-29T09:16:14;26.80;99.90
19817;DHT22;68323;49.394;8.434;2023-07-29T09:18:40;28.40;99.90
19817;DHT22;68323;49.394;8.434;2023-07-29T09:21:05;30.40;99.90
19817;DHT22;68323;49.394;8.434;2023-07-29T09:23:41;32.10;98.90
19817;DHT22;68323;49.394;8.434;2023-07-29T09:26:07;33.50;87.10
19817;DHT22;68323;49.394;8.434;2023-07-29T09:28:37;34.40;81.10
19817;DHT22;68323;49.394;8.434;2023-07-29T09:31:04;35.40;74.10
19817;DHT22;68323;49.394;8.434;2023-07-29T09:33:33;36.10;68.80
19817;DHT22;68323;49.394;8.434;2023-07-29T09:36:01;36.80;67.50
19817;DHT22;68323;49.394;8.434;2023-07-29T09:38:27;37.20;64.20
19817;DHT22;68323;49.394;8.434;2023-07-29T09:40:57;37.90;60.40
19817;DHT22;68323;49.394;8.434;2023-07-29T09:43:31;38.50;57.30
19817;DHT22;68323;49.394;8.434;2023-07-29T09:46:01;38.90;56.40
19817;DHT22;68323;49.394;8.434;2023-07-29T09:48:27;39.00;54.70
19817;DHT22;68323;49.394;8.434;2023-07-29T09:50:54;39.10;54.60
19817;DHT22;68323;49.394;8.434;2023-07-29T09:53:21;39.20;54.30
19817;DHT22;68323;49.394;8.434;2023-07-29T09:55:47;39.40;53.40
19817;DHT22;68323;49.394;8.434;2023-07-29T09:58:26;39.60;51.70
19817;DHT22;68323;49.394;8.434;2023-07-29T10:00:52;39.90;51.60
19817;DHT22;68323;49.394;8.434;2023-07-29T10:03:20;39.90;51.00
19817;DHT22;68323;49.394;8.434;2023-07-29T10:05:46;39.50;49.70
19817;DHT22;68323;49.394;8.434;2023-07-29T10:08:13;39.50;50.20
19817;DHT22;68323;49.394;8.434;2023-07-29T10:10:39;39.70;50.40
19817;DHT22;68323;49.394;8.434;2023-07-29T10:13:06;39.70;49.80
19817;DHT22;68323;49.394;8.434;2023-07-29T10:15:32;39.40;49.70
19817;DHT22;68323;49.394;8.434;2023-07-29T10:17:58;39.40;49.50
19817;DHT22;68323;49.394;8.434;2023-07-29T10:20:24;39.40;48.50
19817;DHT22;68323;49.394;8.434;2023-07-29T10:22:51;39.40;48.10
19817;DHT22;68323;49.394;8.434;2023-07-29T10:25:22;39.40;47.90
19817;DHT22;68323;49.394;8.434;2023-07-29T10:27:53;39.30;48.30
19817;DHT22;68323;49.394;8.434;2023-07-29T10:30:21;39.30;48.10
19817;DHT22;68323;49.394;8.434;2023-07-29T10:32:47;39.40;49.10
19817;DHT22;68323;49.394;8.434;2023-07-29T10:35:14;39.50;47.40
19817;DHT22;68323;49.394;8.434;2023-07-29T10:37:41;39.40;47.80
19817;DHT22;68323;49.394;8.434;2023-07-29T10:40:09;39.40;48.50
19817;DHT22;68323;49.394;8.434;2023-07-29T10:42:35;39.40;47.00
19817;DHT22;68323;49.394;8.434;2023-07-29T10:45:17;39.30;46.80
19817;DHT22;68323;49.394;8.434;2023-07-29T10:47:43;39.10;45.10
19817;DHT22;68323;49.394;8.434;2023-07-29T10:50:21;38.80;46.90
19817;DHT22;68323;49.394;8.434;2023-07-29T10:52:52;38.60;47.90
19817;DHT22;68323;49.394;8.434;2023-07-29T10:55:48;38.20;48.30
19817;DHT22;68323;49.394;8.434;2023-07-29T10:58:16;37.20;48.40
19817;DHT22;68323;49.394;8.434;2023-07-29T11:00:46;36.30;53.80
19817;DHT22;68323;49.394;8.434;2023-07-29T11:03:13;35.30;51.50
19817;DHT22;68323;49.394;8.434;2023-07-29T11:08:18;34.00;55.40
19817;DHT22;68323;49.394;8.434;2023-07-29T11:10:57;33.30;56.60
19817;DHT22;68323;49.394;8.434;2023-07-29T11:13:25;32.70;57.00
19817;DHT22;68323;49.394;8.434;2023-07-29T11:15:52;32.10;57.20
19817;DHT22;68323;49.394;8.434;2023-07-29T11:18:19;31.60;58.50
19817;DHT22;68323;49.394;8.434;2023-07-29T11:20:45;31.30;61.60
19817;DHT22;68323;49.394;8.434;2023-07-29T11:23:11;31.10;60.60
19817;DHT22;68323;49.394;8.434;2023-07-29T11:25:37;30.90;62.50
19817;DHT22;68323;49.394;8.434;2023-07-29T11:28:03;30.60;62.50
19817;DHT22;68323;49.394;8.434;2023-07-29T11:30:29;30.40;63.60
19817;DHT22;68323;49.394;8.434;2023-07-29T11:32:57;30.20;64.00
19817;DHT22;68323;49.394;8.434;2023-07-29T11:35:23;30.20;65.30
19817;DHT22;68323;49.394;8.434;2023-07-29T11:37:51;30.20;64.30
19817;DHT22;68323;49.394;8.434;2023-07-29T11:40:21;30.20;64.60
19817;DHT22;68323;49.394;8.434;2023-07-29T11:42:48;30.30;63.90
19817;DHT22;68323;49.394;8.434;2023-07-29T11:45:15;30.20;63.50
19817;DHT22;68323;49.394;8.434;2023-07-29T11:47:41;30.00;64.40
19817;DHT22;68323;49.394;8.434;2023-07-29T11:50:09;29.90;65.40
19817;DHT22;68323;49.394;8.434;2023-07-29T11:52:36;29.90;63.00
19817;DHT22;68323;49.394;8.434;2023-07-29T11:55:02;29.80;64.50
19817;DHT22;68323;49.394;8.434;2023-07-29T11:57:34;29.80;63.60
19817;DHT22;68323;49.394;8.434;2023-07-29T12:00:02;29.70;64.40
19817;DHT22;68323;49.394;8.434;2023-07-29T12:02:29;29.50;63.20
19817;DHT22;68323;49.394;8.434;2023-07-29T12:04:55;29.60;63.90
19817;DHT22;68323;49.394;8.434;2023-07-29T12:07:22;29.60;65.50
19817;DHT22;68323;49.394;8.434;2023-07-29T12:09:49;29.80;65.00
19817;DHT22;68323;49.394;8.434;2023-07-29T12:12:15;29.90;64.70
19817;DHT22;68323;49.394;8.434;2023-07-29T12:14:44;30.00;64.70
19817;DHT22;68323;49.394;8.434;2023-07-29T12:17:10;30.00;64.30
19817;DHT22;68323;49.394;8.434;2023-07-29T12:19:38;30.10;64.20
19817;DHT22;68323;49.394;8.434;2023-07-29T12:22:08;30.10;62.60
19817;DHT22;68323;49.394;8.434;2023-07-29T12:24:37;30.10;63.30
19817;DHT22;68323;49.394;8.434;2023-07-29T12:27:03;30.20;59.60
19817;DHT22;68323;49.394;8.434;2023-07-29T12:29:28;30.20;59.90
19817;DHT22;68323;49.394;8.434;2023-07-29T12:31:59;30.30;60.10
19817;DHT22;68323;49.394;8.434;2023-07-29T12:34:26;30.30;59.90
19817;DHT22;68323;49.394;8.434;2023-07-29T12:36:52;30.30;59.90
19817;DHT22;68323;49.394;8.434;2023-07-29T12:39:25;30.30;60.90
19817;DHT22;68323;49.394;8.434;2023-07-29T12:41:53;30.40;59.20
19817;DHT22;68323;49.394;8.434;2023-07-29T12:44:19;30.40;58.90
19817;DHT22;68323;49.394;8.434;2023-07-29T12:46:44;30.40;59.90
19817;DHT22;68323;49.394;8.434;2023-07-29T12:49:10;30.50;59.70
19817;DHT22;68323;49.394;8.434;2023-07-29T12:51:36;30.70;58.70
19817;DHT22;68323;49.394;8.434;2023-07-29T12:54:03;30.70;58.10
19817;DHT22;68323;49.394;8.434;2023-07-29T12:56:29;30.60;58.20
19817;DHT22;68323;49.394;8.434;2023-07-29T12:58:56;30.50;59.50
19817;DHT22;68323;49.394;8.434;2023-07-29T13:01:22;30.50;58.10
19817;DHT22;68323;49.394;8.434;2023-07-29T13:03:48;30.60;57.60
19817;DHT22;68323;49.394;8.434;2023-07-29T13:06:14;30.50;58.60
19817;DHT22;68323;49.394;8.434;2023-07-29T13:08:41;30.50;58.00
19817;DHT22;68323;49.394;8.434;2023-07-29T13:11:07;30.60;57.10
19817;DHT22;68323;49.394;8.434;2023-07-29T13:13:33;30.70;57.00
19817;DHT22;68323;49.394;8.434;2023-07-29T13:15:58;30.70;56.40
19817;DHT22;68323;49.394;8.434;2023-07-29T13:18:24;30.70;56.80
19817;DHT22;68323;49.394;8.434;2023-07-29T13:20:49;30.60;56.60
19817;DHT22;68323;49.394;8.434;2023-07-29T13:23:15;30.50;56.40
19817;DHT22;68323;49.394;8.434;2023-07-29T13:25:41;30.50;57.30
19817;DHT22;68323;49.394;8.434;2023-07-29T13:28:09;30.50;57.10
19817;DHT22;68323;49.394;8.434;2023-07-29T13:30:35;30.50;57.00
19817;DHT22;68323;49.394;8.434;2023-07-29T13:33:01;30.50;57.40
19817;DHT22;68323;49.394;8.434;2023-07-29T13:35:26;30.60;58.50
19817;DHT22;68323;49.394;8.434;2023-07-29T13:37:52;30.60;57.30
19817;DHT22;68323;49.394;8.434;2023-07-29T13:40:17;30.60;58.20
19817;DHT22;68323;49.394;8.434;2023-07-29T13:42:43;30.50;58.60
19817;DHT22;68323;49.394;8.434;2023-07-29T13:45:09;30.40;58.40
19817;DHT22;68323;49.394;8.434;2023-07-29T13:47:34;30.30;58.40
19817;DHT22;68323;49.394;8.434;2023-07-29T13:50:02;30.30;59.20
19817;DHT22;68323;49.394;8.434;2023-07-29T13:52:28;30.40;59.70
19817;DHT22;68323;49.394;8.434;2023-07-29T13:54:53;30.70;59.20
19817;DHT22;68323;49.394;8.434;2023-07-29T13:57:19;30.90;57.20
19817;DHT22;68323;49.394;8.434;2023-07-29T13:59:44;31.10;56.90
19817;DHT22;68323;49.394;8.434;2023-07-29T14:02:10;31.00;56.30
19817;DHT22;68323;49.394;8.434;2023-07-29T14:04:35;30.80;56.80
19817;DHT22;68323;49.394;8.434;2023-07-29T14:07:01;30.70;57.70
19817;DHT22;68323;49.394;8.434;2023-07-29T14:09:27;30.70;58.00
19817;DHT22;68323;49.394;8.434;2023-07-29T14:11:54;30.70;57.70
19817;DHT22;68323;49.394;8.434;2023-07-29T14:14:19;30.70;59.20
19817;DHT22;68323;49.394;8.434;2023-07-29T14:16:45;30.60;59.40
19817;DHT22;68323;49.394;8.434;2023-07-29T14:19:11;30.60;59.00
19817;DHT22;68323;49.394;8.434;2023-07-29T14:21:36;30.60;59.00
19817;DHT22;68323;49.394;8.434;2023-07-29T14:24:02;30.60;59.70
19817;DHT22;68323;49.394;8.434;2023-07-29T14:26:27;30.50;59.70
19817;DHT22;68323;49.394;8.434;2023-07-29T14:28:53;30.50;60.50
19817;DHT22;68323;49.394;8.434;2023-07-29T14:31:19;30.40;61.20
19817;DHT22;68323;49.394;8.434;2023-07-29T14:33:45;30.30;62.80
19817;DHT22;68323;49.394;8.434;2023-07-29T14:36:11;30.30;61.50
19817;DHT22;68323;49.394;8.434;2023-07-29T14:38:36;30.40;60.00
19817;DHT22;68323;49.394;8.434;2023-07-29T14:41:03;30.40;58.90
19817;DHT22;68323;49.394;8.434;2023-07-29T14:43:30;30.40;58.60
19817;DHT22;68323;49.394;8.434;2023-07-29T14:45:55;30.50;59.00
19817;DHT22;68323;49.394;8.434;2023-07-29T14:48:21;30.50;58.60
19817;DHT22;68323;49.394;8.434;2023-07-29T14:50:46;30.60;59.30
19817;DHT22;68323;49.394;8.434;2023-07-29T14:53:13;30.70;58.90
19817;DHT22;68323;49.394;8.434;2023-07-29T14:55:38;30.80;59.40
19817;DHT22;68323;49.394;8.434;2023-07-29T14:58:04;31.00;60.10
19817;DHT22;68323;49.394;8.434;2023-07-29T15:00:29;31.20;59.20
19817;DHT22;68323;49.394;8.434;2023-07-29T15:02:55;31.40;58.90
19817;DHT22;68323;49.394;8.434;2023-07-29T15:05:20;31.40;58.00
19817;DHT22;68323;49.394;8.434;2023-07-29T15:07:46;31.40;57.70
19817;DHT22;68323;49.394;8.434;2023-07-29T15:10:15;31.50;58.20
19817;DHT22;68323;49.394;8.434;2023-07-29T15:12:41;31.60;58.90
19817;DHT22;68323;49.394;8.434;2023-07-29T15:15:08;31.60;57.30
19817;DHT22;68323;49.394;8.434;2023-07-29T15:17:33;31.50;56.30
19817;DHT22;68323;49.394;8.434;2023-07-29T15:19:59;31.40;56.60
19817;DHT22;68323;49.394;8.434;2023-07-29T15:22:25;31.20;56.90
19817;DHT22;68323;49.394;8.434;2023-07-29T15:24:50;31.10;58.30
19817;DHT22;68323;49.394;8.434;2023-07-29T15:27:16;30.90;58.50
19817;DHT22;68323;49.394;8.434;2023-07-29T15:29:41;30.80;58.30
19817;DHT22;68323;49.394;8.434;2023-07-29T15:32:07;30.60;58.50
19817;DHT22;68323;49.394;8.434;2023-07-29T15:34:33;30.40;59.00